createdAt,value
2024-01-24T00:02:10.719Z,98.8
2024-01-24T00:07:10.689Z,99
2024-01-24T00:12:10.818Z,99
2024-01-24T00:17:10.683Z,99.4
2024-01-24T00:22:10.681Z,99
2024-01-24T00:27:10.739Z,99
2024-01-24T00:32:10.672Z,99.1
2024-01-24T00:37:10.688Z,99
2024-01-24T00:42:10.671Z,98.9
2024-01-24T00:47:10.657Z,98.9
2024-01-24T00:52:10.751Z,99
2024-01-24T00:57:10.684Z,99.1
2024-01-24T01:02:10.662Z,99.2
2024-01-24T01:07:10.648Z,99.4
2024-01-24T01:12:10.675Z,99.5
2024-01-24T01:17:10.629Z,99.7
2024-01-24T01:22:10.733Z,99.7
2024-01-24T01:27:10.665Z,99.9
2024-01-24T01:32:10.677Z,100
2024-01-24T01:37:10.671Z,100
2024-01-24T01:42:10.662Z,100
2024-01-24T01:47:10.613Z,100
2024-01-24T01:52:10.626Z,100
2024-01-24T01:57:10.636Z,100
2024-01-24T02:02:10.714Z,100
2024-01-24T02:07:10.728Z,100
2024-01-24T02:12:10.631Z,100
2024-01-24T02:17:10.620Z,100
2024-01-24T02:22:10.608Z,100
2024-01-24T02:27:10.606Z,100
2024-01-24T02:32:10.606Z,100
2024-01-24T02:37:10.620Z,100
2024-01-24T02:42:10.667Z,100
2024-01-24T02:47:10.656Z,100
2024-01-24T02:52:10.609Z,100
2024-01-24T02:57:10.660Z,100
2024-01-24T03:02:10.575Z,100
2024-01-24T03:07:10.676Z,100
2024-01-24T03:12:10.597Z,100
2024-01-24T03:17:10.588Z,100
2024-01-24T03:22:10.557Z,100
2024-01-24T03:27:10.582Z,100
2024-01-24T03:32:10.572Z,100
2024-01-24T03:37:10.598Z,100
2024-01-24T03:42:10.590Z,100
2024-01-24T03:47:10.578Z,100
2024-01-24T03:52:10.575Z,100
2024-01-24T03:57:10.600Z,100
2024-01-24T04:02:11.719Z,100
2024-01-24T04:07:10.571Z,100
2024-01-24T04:12:10.536Z,100
2024-01-24T04:17:10.545Z,100
2024-01-24T04:22:10.566Z,100
2024-01-24T04:27:10.561Z,100
2024-01-24T04:32:10.579Z,100
2024-01-24T04:37:10.547Z,100
2024-01-24T04:42:15.754Z,100
2024-01-24T04:47:10.519Z,100
2024-01-24T04:52:10.537Z,100
2024-01-24T04:57:10.516Z,100
2024-01-24T05:02:10.546Z,100
2024-01-24T05:07:10.651Z,100
2024-01-24T05:12:10.521Z,100
2024-01-24T05:17:10.519Z,100
2024-01-24T05:22:10.542Z,100
2024-01-24T05:27:10.560Z,100
2024-01-24T05:32:10.505Z,100
2024-01-24T05:37:10.499Z,100
2024-01-24T05:42:10.489Z,100
2024-01-24T05:47:10.484Z,100
2024-01-24T05:52:10.465Z,100
2024-01-24T05:57:10.486Z,100
2024-01-24T06:02:10.483Z,100
2024-01-24T06:07:10.512Z,100
2024-01-24T06:12:10.518Z,100
2024-01-24T06:17:10.462Z,100
2024-01-24T06:22:10.455Z,100
2024-01-24T06:27:10.439Z,100
2024-01-24T06:32:10.427Z,100
2024-01-24T06:37:10.425Z,100
2024-01-24T06:42:10.437Z,99.7
2024-01-24T06:47:10.436Z,97.7
2024-01-24T06:52:10.418Z,96.1
2024-01-24T06:57:10.417Z,94.6
2024-01-24T07:02:10.442Z,93.3
2024-01-24T07:07:10.454Z,91.7
2024-01-24T07:12:10.408Z,90.5
2024-01-24T07:17:10.413Z,89.4
2024-01-24T07:22:10.406Z,87.9
2024-01-24T07:27:10.380Z,87.3
2024-01-24T07:37:10.363Z,86.2
2024-01-24T08:12:10.390Z,83.1
2024-01-24T08:27:10.342Z,82.1
2024-01-24T08:42:10.297Z,81.3
2024-01-24T08:47:10.298Z,81.3
2024-01-24T08:52:10.320Z,81.2
2024-01-24T08:57:10.279Z,81.2
2024-01-24T09:02:10.337Z,80.9
2024-01-24T09:07:10.311Z,80.9
2024-01-24T09:17:10.295Z,80.8
2024-01-24T09:22:10.267Z,81.2
2024-01-24T09:32:10.313Z,82.1
2024-01-24T09:37:10.258Z,81.9
2024-01-24T09:42:10.266Z,81.9
2024-01-24T09:47:10.278Z,82
2024-01-24T09:52:10.219Z,81.6
2024-01-24T10:02:10.254Z,81.2
2024-01-24T10:12:10.205Z,80.7
2024-01-24T10:17:10.195Z,80.1
2024-01-24T10:22:10.809Z,79.3
2024-01-24T10:27:10.202Z,78.4
2024-01-24T10:32:10.200Z,78
2024-01-24T10:57:10.166Z,75.8
2024-01-24T11:02:10.157Z,75
2024-01-24T11:22:13.197Z,74.8
2024-01-24T11:47:10.110Z,73.1
2024-01-24T11:52:10.101Z,73.8
2024-01-24T11:57:10.105Z,73.7
2024-01-24T12:12:10.090Z,74.2
2024-01-24T12:17:10.100Z,74.4
2024-01-24T12:22:10.185Z,73.7
2024-01-24T12:37:10.047Z,73.4
2024-01-24T12:42:10.095Z,74
2024-01-24T12:52:10.032Z,75.1
2024-01-24T12:57:10.028Z,74.4
2024-01-24T13:02:10.046Z,74.3
2024-01-24T13:07:10.050Z,74.2
2024-01-24T13:17:10.015Z,74.8
2024-01-24T13:32:10.016Z,73.6
2024-01-24T13:37:10.018Z,74.9
2024-01-24T13:42:10.030Z,76
2024-01-24T13:47:10.023Z,77.8
2024-01-24T13:52:09.995Z,78.8
2024-01-24T13:57:09.997Z,79.2
2024-01-24T14:02:10.095Z,79.3
2024-01-24T14:07:10.020Z,79.4
2024-01-24T14:12:09.973Z,79.4
2024-01-24T14:17:10.034Z,78.7
2024-01-24T14:22:09.979Z,78.9
2024-01-24T14:27:09.926Z,78.6
2024-01-24T14:32:09.926Z,78
2024-01-24T14:37:10.752Z,77.5
2024-01-24T14:42:09.952Z,77.5
2024-01-24T14:47:10.121Z,77.2
2024-01-24T14:52:09.944Z,77.8
2024-01-24T14:57:09.979Z,81.7
2024-01-24T15:02:09.900Z,86.8
2024-01-24T15:07:09.912Z,88.7
2024-01-24T15:12:09.869Z,91.5
2024-01-24T15:17:09.876Z,93.9
2024-01-24T15:22:09.906Z,95.2
2024-01-24T15:27:09.896Z,96.3
2024-01-24T15:32:09.861Z,97.1
2024-01-24T15:37:09.872Z,98.2
2024-01-24T15:42:09.875Z,100
2024-01-24T15:47:09.885Z,100
2024-01-24T15:52:09.867Z,100
2024-01-24T15:57:09.853Z,100
2024-01-24T16:02:09.906Z,100
2024-01-24T16:07:09.849Z,100
2024-01-24T16:12:09.806Z,100
2024-01-24T16:17:11.467Z,100
2024-01-24T16:22:09.819Z,100
2024-01-24T16:27:09.798Z,100
2024-01-24T16:32:09.833Z,100
2024-01-24T16:37:09.863Z,100
2024-01-24T16:42:09.781Z,100
2024-01-24T16:47:10.871Z,100
2024-01-24T16:52:09.779Z,100
2024-01-24T16:57:09.770Z,100
2024-01-24T17:02:09.773Z,100
2024-01-24T17:07:09.804Z,100
2024-01-24T17:12:09.777Z,100
2024-01-24T17:17:09.773Z,100
2024-01-24T17:22:09.765Z,100
2024-01-24T17:27:09.767Z,100
2024-01-24T17:32:09.805Z,100
2024-01-24T17:37:09.769Z,99.4
2024-01-24T17:42:09.738Z,98.4
2024-01-24T17:47:09.748Z,96.3
2024-01-24T17:52:09.771Z,94
2024-01-24T17:57:09.841Z,92.2
2024-01-24T18:02:09.696Z,91
2024-01-24T18:07:09.772Z,89.9
2024-01-24T18:12:09.717Z,89.3
2024-01-24T18:17:09.716Z,88.6
2024-01-24T18:22:09.725Z,89.4
2024-01-24T18:27:09.698Z,89
2024-01-24T18:32:09.683Z,89.5
2024-01-24T18:37:09.803Z,90.3
2024-01-24T18:42:09.669Z,90.6
2024-01-24T18:47:09.713Z,90.1
2024-01-24T18:52:09.744Z,90
2024-01-24T18:57:09.646Z,90.1
2024-01-24T19:02:10.665Z,89.7
2024-01-24T19:07:09.689Z,89.4
2024-01-24T19:12:09.684Z,89.2
2024-01-24T19:17:09.732Z,89.4
2024-01-24T19:22:09.662Z,89.7
2024-01-24T19:27:09.887Z,90.3
2024-01-24T19:32:09.649Z,90.8
2024-01-24T19:37:09.634Z,91.1
2024-01-24T19:42:09.628Z,90.9
2024-01-24T19:47:09.622Z,89.9
2024-01-24T19:52:09.704Z,88.6
2024-01-24T19:57:09.704Z,88.4
2024-01-24T20:02:09.634Z,87.9
2024-01-24T20:07:09.653Z,87.5
2024-01-24T20:12:09.630Z,86.6
2024-01-24T20:17:09.618Z,86.1
2024-01-24T20:22:09.693Z,85.6
2024-01-24T20:27:09.603Z,85.1
2024-01-24T20:32:09.589Z,84.7
2024-01-24T20:37:09.623Z,84.9
2024-01-24T20:42:11.418Z,84.4
2024-01-24T20:47:09.568Z,84.6
2024-01-24T20:52:09.608Z,84.8
2024-01-24T20:57:09.567Z,85.4
2024-01-24T21:02:09.659Z,85.9
2024-01-24T21:07:09.615Z,86.4
2024-01-24T21:12:09.571Z,87.2
2024-01-24T21:17:09.543Z,87.2
2024-01-24T21:22:09.646Z,87
2024-01-24T21:27:09.552Z,87.4
2024-01-24T21:32:09.541Z,86.8
2024-01-24T21:37:09.589Z,86.6
2024-01-24T21:42:09.526Z,85.8
2024-01-24T21:47:09.553Z,85.4
2024-01-24T21:52:09.544Z,85.3
2024-01-24T21:57:09.529Z,85.4
2024-01-24T22:02:09.528Z,85.2
2024-01-24T22:07:09.590Z,85.7
2024-01-24T22:12:09.503Z,86.3
2024-01-24T22:17:09.526Z,86.8
2024-01-24T22:27:09.471Z,87.1
2024-01-24T22:32:09.478Z,87.2
2024-01-24T22:37:09.510Z,87.2
2024-01-24T22:47:09.458Z,86.7
2024-01-24T22:52:09.542Z,86.7
2024-01-24T23:02:09.567Z,87.2
2024-01-24T23:07:09.515Z,87.3
2024-01-24T23:12:09.452Z,87.5
2024-01-24T23:22:09.498Z,87.6
2024-01-24T23:27:09.449Z,87.3
2024-01-24T23:32:09.436Z,87
2024-01-24T23:37:09.605Z,86.9
2024-01-24T23:42:09.450Z,86.2
2024-01-24T23:47:09.476Z,86
2024-01-24T23:52:09.583Z,85.3
2024-01-24T23:57:09.423Z,85.2
